createdAt,value
2022-08-26T00:02:07.596Z,30.40
2022-08-26T00:04:36.231Z,27.90
2022-08-26T00:07:08.278Z,26.20
2022-08-26T00:09:40.371Z,31.30
2022-08-26T00:12:12.388Z,26.30
2022-08-26T00:14:43.662Z,25.40
2022-08-26T00:17:11.802Z,30.30
2022-08-26T00:19:39.794Z,27.60
2022-08-26T00:22:08.304Z,23.80
2022-08-26T00:24:36.362Z,29.10
2022-08-26T00:27:24.034Z,30.70
2022-08-26T00:29:53.755Z,26.60
2022-08-26T00:32:25.053Z,30.90
2022-08-26T00:34:54.232Z,28.00
2022-08-26T00:37:22.170Z,26.50
2022-08-26T00:39:50.463Z,32.10
2022-08-26T00:42:21.222Z,26.00
2022-08-26T00:44:51.083Z,37.50
2022-08-26T00:47:53.838Z,23.70
2022-08-26T00:50:40.558Z,28.20
2022-08-26T00:53:24.079Z,35.30
2022-08-26T00:56:21.412Z,35.70
2022-08-26T00:58:50.463Z,27.80
2022-08-26T01:01:18.849Z,26.50
2022-08-26T01:03:51.523Z,31.60
2022-08-26T01:06:23.649Z,34.70
2022-08-26T01:08:52.607Z,29.50
2022-08-26T01:11:21.015Z,28.50
2022-08-26T01:13:53.416Z,29.40
2022-08-26T01:19:03.636Z,36.70
2022-08-26T01:22:00.366Z,30.70
2022-08-26T01:24:29.772Z,26.00
2022-08-26T01:27:05.255Z,27.10
2022-08-26T01:29:34.926Z,29.30
2022-08-26T01:32:05.151Z,27.20
2022-08-26T01:34:37.575Z,25.60
2022-08-26T01:39:48.525Z,26.80
2022-08-26T01:42:19.467Z,33.50
2022-08-26T01:45:06.006Z,29.80
2022-08-26T01:47:35.833Z,31.50
2022-08-26T01:50:12.608Z,28.30
2022-08-26T01:52:49.942Z,30.80
2022-08-26T01:55:32.060Z,30.30
2022-08-26T01:58:09.915Z,25.10
2022-08-26T02:00:38.278Z,30.10
2022-08-26T02:03:17.436Z,28.60
2022-08-26T02:05:59.750Z,25.60
2022-08-26T02:08:40.714Z,31.80
2022-08-26T02:11:10.430Z,35.70
2022-08-26T02:13:55.782Z,25.70
2022-08-26T02:16:27.816Z,26.00
2022-08-26T02:19:00.158Z,34.10
2022-08-26T02:21:38.427Z,28.80
2022-08-26T02:24:17.523Z,40.70
2022-08-26T02:26:48.843Z,35.50
2022-08-26T02:29:36.307Z,39.10
2022-08-26T02:38:50.465Z,30.10
2022-08-26T02:41:20.133Z,29.90
2022-08-26T02:43:50.941Z,29.70
2022-08-26T02:46:21.478Z,34.70
2022-08-26T02:48:56.362Z,35.50
2022-08-26T02:51:24.248Z,31.00
2022-08-26T02:54:10.843Z,42.10
2022-08-26T02:56:41.470Z,25.90
2022-08-26T02:59:12.516Z,31.60
2022-08-26T03:01:41.807Z,30.20
2022-08-26T03:04:12.333Z,28.10
2022-08-26T03:06:40.687Z,29.50
2022-08-26T03:09:09.865Z,25.00
2022-08-26T03:11:42.208Z,33.90
2022-08-26T03:14:13.617Z,26.20
2022-08-26T03:16:42.880Z,31.10
2022-08-26T03:19:12.233Z,34.80
2022-08-26T03:21:44.197Z,28.90
2022-08-26T03:24:12.735Z,36.60
2022-08-26T03:26:40.995Z,35.80
2022-08-26T03:29:41.434Z,31.60
2022-08-26T03:32:09.666Z,23.80
2022-08-26T03:34:38.819Z,31.90
2022-08-26T03:37:06.870Z,32.20
2022-08-26T03:39:35.488Z,27.90
2022-08-26T03:42:06.653Z,37.60
2022-08-26T03:44:40.121Z,32.50
2022-08-26T03:47:12.023Z,29.20
2022-08-26T03:49:43.028Z,33.00
2022-08-26T03:52:11.340Z,36.30
2022-08-26T03:54:40.698Z,36.00
2022-08-26T03:57:11.500Z,32.10
2022-08-26T03:59:41.327Z,35.80
2022-08-26T04:02:11.715Z,36.50
2022-08-26T04:04:42.452Z,37.30
2022-08-26T04:07:13.037Z,39.00
2022-08-26T04:09:40.950Z,32.50
2022-08-26T04:12:10.825Z,36.70
2022-08-26T04:14:39.354Z,36.90
2022-08-26T04:17:07.409Z,34.10
2022-08-26T04:19:36.034Z,30.00
2022-08-26T04:22:05.131Z,36.50
2022-08-26T04:24:35.111Z,37.50
2022-08-26T04:27:03.709Z,33.30
2022-08-26T04:29:32.592Z,32.60
2022-08-26T04:32:00.872Z,36.30
2022-08-26T04:34:29.788Z,32.90
2022-08-26T04:37:02.840Z,33.80
2022-08-26T04:39:31.425Z,33.60
2022-08-26T04:42:01.650Z,34.80
2022-08-26T04:44:30.443Z,29.00
2022-08-26T04:46:58.867Z,33.50
2022-08-26T04:49:27.733Z,31.20
2022-08-26T04:51:55.871Z,31.80
2022-08-26T04:54:25.170Z,31.30
2022-08-26T04:56:54.343Z,33.00
2022-08-26T04:59:22.335Z,32.10
2022-08-26T05:02:00.725Z,28.40
2022-08-26T05:04:30.373Z,33.90
2022-08-26T05:07:02.430Z,32.40
2022-08-26T05:09:34.360Z,29.40
2022-08-26T05:12:02.184Z,32.70
2022-08-26T05:14:32.653Z,33.30
2022-08-26T05:17:02.932Z,28.00
2022-08-26T05:19:33.128Z,31.80
2022-08-26T05:22:01.787Z,30.30
2022-08-26T05:24:31.270Z,30.80
2022-08-26T05:26:59.150Z,29.90
2022-08-26T05:29:28.102Z,35.10
2022-08-26T05:32:04.106Z,31.80
2022-08-26T05:34:34.651Z,30.90
2022-08-26T05:37:04.891Z,31.60
2022-08-26T05:39:33.971Z,31.40
2022-08-26T05:42:08.552Z,29.10
2022-08-26T05:44:55.742Z,30.20
2022-08-26T05:47:25.732Z,29.00
2022-08-26T05:49:54.550Z,29.30
2022-08-26T05:52:24.674Z,31.10
2022-08-26T05:54:54.401Z,28.70
2022-08-26T05:57:23.101Z,26.90
2022-08-26T05:59:52.052Z,27.40
2022-08-26T06:02:21.691Z,28.10
2022-08-26T06:04:50.913Z,29.20
2022-08-26T06:13:40.455Z,24.10
2022-08-26T06:16:15.506Z,22.90
2022-08-26T06:18:48.263Z,26.50
2022-08-26T06:21:25.216Z,24.60
2022-08-26T06:24:17.998Z,25.00
2022-08-26T06:27:05.800Z,23.30
2022-08-26T06:29:36.052Z,28.00
2022-08-26T06:32:04.841Z,21.70
2022-08-26T06:34:32.973Z,24.00
2022-08-26T06:37:06.363Z,25.10
2022-08-26T06:39:34.590Z,24.40
2022-08-26T06:42:06.132Z,23.30
2022-08-26T06:44:34.585Z,22.20
2022-08-26T06:47:02.421Z,24.80
2022-08-26T06:49:35.227Z,20.90
2022-08-26T06:52:04.923Z,20.70
2022-08-26T06:54:32.843Z,22.20
2022-08-26T06:57:01.438Z,21.40
2022-08-26T06:59:31.407Z,22.00
2022-08-26T07:01:59.553Z,20.00
2022-08-26T07:04:28.183Z,23.50
2022-08-26T07:06:56.864Z,18.70
2022-08-26T07:09:30.400Z,22.40
2022-08-26T07:11:59.518Z,16.10
2022-08-26T07:14:27.330Z,20.30
2022-08-26T07:16:55.242Z,19.80
2022-08-26T07:19:30.146Z,19.90
2022-08-26T07:22:03.949Z,17.20
2022-08-26T07:24:38.534Z,19.00
2022-08-26T07:27:11.626Z,20.40
2022-08-26T07:29:41.256Z,19.30
2022-08-26T07:32:11.670Z,19.00
2022-08-26T07:34:40.370Z,16.00
2022-08-26T07:37:10.068Z,16.70
2022-08-26T07:39:40.416Z,16.30
2022-08-26T07:42:10.801Z,19.40
2022-08-26T07:44:40.535Z,15.00
2022-08-26T07:47:10.489Z,17.10
2022-08-26T07:49:56.316Z,12.90
2022-08-26T07:52:28.030Z,13.70
2022-08-26T07:54:59.042Z,14.10
2022-08-26T07:57:28.594Z,12.80
2022-08-26T07:59:57.405Z,14.30
2022-08-26T08:02:28.452Z,15.20
2022-08-26T08:04:58.588Z,13.30
2022-08-26T08:07:44.993Z,12.50
2022-08-26T08:10:21.101Z,10.80
2022-08-26T08:12:51.063Z,13.70
2022-08-26T08:15:25.193Z,12.40
2022-08-26T08:17:54.060Z,16.40
2022-08-26T08:20:27.008Z,14.50
2022-08-26T08:22:56.624Z,13.10
2022-08-26T08:25:26.720Z,14.80
2022-08-26T08:27:54.586Z,20.80
2022-08-26T08:30:23.325Z,11.60
2022-08-26T08:32:52.459Z,19.60
2022-08-26T08:35:23.564Z,12.40
2022-08-26T08:37:54.566Z,12.40
2022-08-26T08:40:26.374Z,12.50
2022-08-26T08:43:14.275Z,10.40
2022-08-26T08:46:00.074Z,8.60
2022-08-26T08:48:36.451Z,13.50
2022-08-26T08:51:39.967Z,11.10
2022-08-26T08:54:08.799Z,10.50
2022-08-26T08:56:55.203Z,10.90
2022-08-26T08:59:28.559Z,9.50
2022-08-26T09:02:19.339Z,11.20
2022-08-26T09:04:54.967Z,11.20
2022-08-26T09:07:35.885Z,9.50
2022-08-26T09:10:22.093Z,11.10
2022-08-26T09:12:52.903Z,10.60
2022-08-26T09:15:42.441Z,8.50
2022-08-26T09:18:22.213Z,10.80
2022-08-26T09:21:19.758Z,16.10
2022-08-26T09:23:49.615Z,10.90
2022-08-26T09:26:41.160Z,8.00
2022-08-26T09:32:21.355Z,12.40
2022-08-26T09:34:53.998Z,11.00
2022-08-26T09:37:38.774Z,12.70
2022-08-26T09:40:23.811Z,10.50
2022-08-26T09:43:22.673Z,10.70
2022-08-26T09:46:20.560Z,11.00
2022-08-26T09:48:48.591Z,13.60
2022-08-26T09:51:23.278Z,7.70
2022-08-26T09:54:01.451Z,14.40
2022-08-26T09:56:37.161Z,11.30
2022-08-26T09:59:10.941Z,10.30
2022-08-26T10:01:44.716Z,9.80
2022-08-26T10:04:23.607Z,9.70
2022-08-26T10:07:02.255Z,13.30
2022-08-26T10:09:36.045Z,14.50
2022-08-26T10:12:11.495Z,7.40
2022-08-26T10:14:48.273Z,11.30
2022-08-26T10:17:40.123Z,7.10
2022-08-26T10:20:23.572Z,7.70
2022-08-26T10:23:07.557Z,11.50
2022-08-26T10:25:46.572Z,9.50
2022-08-26T10:28:48.839Z,15.60
2022-08-26T10:31:28.134Z,8.10
2022-08-26T10:34:00.137Z,9.50
2022-08-26T10:37:14.547Z,8.50
2022-08-26T10:40:03.426Z,7.70
2022-08-26T10:42:47.074Z,7.80
2022-08-26T10:45:22.442Z,5.70
2022-08-26T10:48:08.698Z,10.10
2022-08-26T10:50:43.725Z,9.60
2022-08-26T10:53:25.118Z,8.90
2022-08-26T10:56:06.531Z,9.40
2022-08-26T10:59:12.298Z,11.50
2022-08-26T11:01:51.101Z,13.50
2022-08-26T11:05:06.252Z,7.70
2022-08-26T11:07:37.902Z,16.60
2022-08-26T11:10:13.113Z,7.40
2022-08-26T11:13:04.009Z,10.00
2022-08-26T11:15:32.293Z,9.00
2022-08-26T11:18:35.605Z,10.40
2022-08-26T11:21:03.842Z,13.30
2022-08-26T11:23:50.579Z,9.00
2022-08-26T11:26:35.759Z,13.50
2022-08-26T11:29:12.958Z,14.10
2022-08-26T11:31:41.558Z,14.20
2022-08-26T11:34:14.057Z,9.20
2022-08-26T11:36:54.828Z,12.10
2022-08-26T11:40:04.072Z,16.60
2022-08-26T11:42:42.754Z,9.90
2022-08-26T11:45:32.261Z,10.20
2022-08-26T11:48:21.917Z,10.60
2022-08-26T11:50:57.553Z,9.40
2022-08-26T11:53:27.149Z,9.40
2022-08-26T11:55:58.905Z,14.70
2022-08-26T11:58:28.234Z,10.70
2022-08-26T12:01:09.855Z,11.20
2022-08-26T12:03:45.623Z,10.40
2022-08-26T12:06:28.170Z,9.80
2022-08-26T12:14:20.785Z,12.20
2022-08-26T12:16:50.274Z,11.30
2022-08-26T12:19:33.909Z,8.80
2022-08-26T12:22:20.880Z,9.00
2022-08-26T12:24:58.567Z,10.00
2022-08-26T12:27:31.602Z,10.10
2022-08-26T12:30:14.008Z,8.30
2022-08-26T12:33:03.909Z,6.20
2022-08-26T12:35:54.363Z,8.00
2022-08-26T12:38:24.151Z,10.50
2022-08-26T12:40:52.722Z,8.90
2022-08-26T12:43:45.213Z,7.10
2022-08-26T12:46:18.313Z,8.40
2022-08-26T12:48:49.042Z,7.40
2022-08-26T12:51:29.763Z,6.80
2022-08-26T12:53:58.716Z,8.90
2022-08-26T12:56:39.617Z,7.90
2022-08-26T12:59:25.316Z,11.10
2022-08-26T13:01:56.901Z,6.40
2022-08-26T13:04:37.309Z,7.90
2022-08-26T13:07:26.614Z,8.50
2022-08-26T13:09:58.077Z,9.30
2022-08-26T13:12:25.975Z,5.70
2022-08-26T13:15:01.866Z,15.80
2022-08-26T13:17:30.980Z,5.40
2022-08-26T13:20:03.490Z,8.00
2022-08-26T13:22:32.426Z,9.50
2022-08-26T13:25:00.292Z,8.00
2022-08-26T13:27:28.084Z,11.60
2022-08-26T13:29:57.753Z,9.90
2022-08-26T13:32:27.522Z,8.00
2022-08-26T13:34:56.721Z,7.90
2022-08-26T13:37:34.452Z,6.70
2022-08-26T13:40:07.259Z,6.40
2022-08-26T13:42:35.221Z,12.00
2022-08-26T13:45:04.119Z,8.00
2022-08-26T13:47:32.442Z,6.80
2022-08-26T13:50:00.253Z,9.00
2022-08-26T13:52:30.661Z,10.20
2022-08-26T13:55:00.706Z,12.10
2022-08-26T13:57:30.547Z,13.10
2022-08-26T13:59:59.575Z,8.20
2022-08-26T14:02:28.201Z,11.50
2022-08-26T14:04:56.511Z,6.70
2022-08-26T14:07:26.335Z,7.00
2022-08-26T14:09:54.515Z,13.60
2022-08-26T14:12:22.795Z,7.00
2022-08-26T14:14:51.412Z,7.40
2022-08-26T14:17:22.254Z,5.00
2022-08-26T14:19:50.852Z,8.10
2022-08-26T14:22:22.654Z,9.90
2022-08-26T14:24:50.738Z,7.80
2022-08-26T14:27:21.237Z,10.40
2022-08-26T14:29:49.666Z,11.00
2022-08-26T14:32:57.758Z,13.20
2022-08-26T14:35:24.346Z,11.20
2022-08-26T14:37:52.829Z,9.60
2022-08-26T14:40:22.694Z,13.00
2022-08-26T14:42:54.605Z,12.40
2022-08-26T14:45:32.055Z,10.20
2022-08-26T14:48:02.918Z,9.70
2022-08-26T14:50:32.963Z,11.00
2022-08-26T14:53:19.841Z,8.10
2022-08-26T14:55:49.998Z,10.90
2022-08-26T14:58:18.025Z,9.50
2022-08-26T15:00:46.002Z,5.50
2022-08-26T15:05:48.015Z,7.80
2022-08-26T15:08:18.439Z,6.90
2022-08-26T15:10:46.853Z,5.90
2022-08-26T15:13:14.854Z,9.60
2022-08-26T15:15:46.907Z,11.70
2022-08-26T15:20:43.170Z,9.20
2022-08-26T15:23:11.705Z,10.20
2022-08-26T15:25:44.067Z,11.00
2022-08-26T15:28:12.451Z,10.90
2022-08-26T15:30:40.348Z,12.70
2022-08-26T15:33:15.202Z,6.80
2022-08-26T15:35:44.029Z,9.80
2022-08-26T15:38:12.717Z,10.70
2022-08-26T15:40:40.820Z,8.10
2022-08-26T15:43:25.478Z,9.60
2022-08-26T15:45:56.653Z,11.50
2022-08-26T15:48:25.369Z,6.20
2022-08-26T15:50:57.802Z,10.70
2022-08-26T15:53:28.079Z,8.60
2022-08-26T15:55:57.748Z,11.80
2022-08-26T15:58:27.276Z,7.50
2022-08-26T16:00:56.701Z,7.20
2022-08-26T16:03:25.827Z,13.80
2022-08-26T16:05:54.214Z,12.20
2022-08-26T16:08:22.536Z,8.10
2022-08-26T16:10:51.581Z,7.40
2022-08-26T16:13:40.094Z,11.40
2022-08-26T16:16:08.486Z,9.80
2022-08-26T16:18:39.049Z,8.90
2022-08-26T16:21:25.762Z,8.50
2022-08-26T16:23:54.119Z,7.40
2022-08-26T16:26:28.050Z,6.00
2022-08-26T16:28:56.155Z,9.50
2022-08-26T16:31:27.700Z,6.10
2022-08-26T16:33:55.564Z,8.00
2022-08-26T16:36:24.778Z,7.80
2022-08-26T16:38:55.863Z,9.60
2022-08-26T16:41:26.380Z,7.00
2022-08-26T16:43:55.758Z,6.10
2022-08-26T16:46:26.472Z,5.40
2022-08-26T16:48:56.728Z,8.50
2022-08-26T16:51:29.592Z,14.50
2022-08-26T16:53:59.119Z,11.30
2022-08-26T16:56:34.858Z,14.50
2022-08-26T17:01:35.218Z,7.30
2022-08-26T17:04:04.074Z,8.30
2022-08-26T17:06:31.994Z,8.00
2022-08-26T17:09:00.133Z,16.10
2022-08-26T17:11:28.398Z,9.20
2022-08-26T17:13:57.899Z,9.30
2022-08-26T17:16:27.001Z,6.30
2022-08-26T17:19:00.286Z,9.20
2022-08-26T17:21:38.542Z,10.70
2022-08-26T17:24:10.096Z,12.40
2022-08-26T17:26:39.349Z,9.60
2022-08-26T17:29:18.698Z,12.70
2022-08-26T17:31:47.783Z,10.60
2022-08-26T17:34:16.008Z,14.50
2022-08-26T17:36:44.384Z,10.30
2022-08-26T17:39:14.625Z,11.20
2022-08-26T17:41:42.788Z,9.10
2022-08-26T17:44:13.417Z,8.20
2022-08-26T17:47:13.785Z,12.00
2022-08-26T17:49:45.609Z,22.60
2022-08-26T17:52:16.701Z,22.20
2022-08-26T17:54:44.609Z,23.10
2022-08-26T17:57:53.897Z,17.90
2022-08-26T18:00:27.218Z,16.60
2022-08-26T18:02:59.598Z,17.10
2022-08-26T18:05:27.903Z,18.60
2022-08-26T18:07:56.984Z,16.70
2022-08-26T18:10:27.779Z,17.70
2022-08-26T18:12:57.491Z,17.30
2022-08-26T18:15:27.813Z,17.50
2022-08-26T18:17:58.438Z,18.60
2022-08-26T18:20:26.536Z,14.50
2022-08-26T18:22:54.551Z,15.70
2022-08-26T18:25:23.425Z,12.70
2022-08-26T18:27:55.081Z,20.60
2022-08-26T18:30:23.250Z,11.40
2022-08-26T18:32:53.573Z,14.70
2022-08-26T18:35:21.605Z,15.20
2022-08-26T18:37:49.879Z,11.80
2022-08-26T18:40:17.941Z,14.50
2022-08-26T18:42:49.373Z,21.60
2022-08-26T18:45:24.980Z,24.50
2022-08-26T18:47:58.239Z,18.80
2022-08-26T18:50:26.160Z,18.10
2022-08-26T18:52:54.384Z,17.00
2022-08-26T18:55:26.220Z,14.10
2022-08-26T18:58:03.098Z,20.20
2022-08-26T19:00:37.233Z,13.10
2022-08-26T19:03:05.891Z,21.20
2022-08-26T19:05:49.208Z,21.20
2022-08-26T19:08:17.158Z,20.30
2022-08-26T19:10:45.401Z,17.70
2022-08-26T19:13:15.934Z,22.20
2022-08-26T19:15:49.578Z,19.80
2022-08-26T19:18:19.027Z,13.10
2022-08-26T19:20:48.067Z,23.40
2022-08-26T19:23:33.183Z,16.30
2022-08-26T19:26:04.576Z,18.00
2022-08-26T19:28:35.396Z,20.00
2022-08-26T19:31:10.537Z,15.60
2022-08-26T19:33:40.336Z,14.70
2022-08-26T19:36:18.576Z,13.30
2022-08-26T19:38:47.422Z,17.00
2022-08-26T19:41:20.837Z,17.10
2022-08-26T19:43:49.314Z,15.50
2022-08-26T19:46:20.916Z,13.80
2022-08-26T19:51:31.068Z,14.40
2022-08-26T19:54:04.422Z,15.00
2022-08-26T19:56:35.138Z,19.40
2022-08-26T19:59:03.184Z,15.80
2022-08-26T20:01:38.488Z,16.90
2022-08-26T20:04:13.063Z,25.80
2022-08-26T20:06:41.133Z,12.50
2022-08-26T20:09:12.732Z,11.40
2022-08-26T20:11:42.921Z,16.60
2022-08-26T20:14:13.516Z,16.30
2022-08-26T20:16:42.437Z,15.20
2022-08-26T20:19:36.833Z,17.90
2022-08-26T20:24:41.941Z,16.50
2022-08-26T20:27:10.031Z,18.30
2022-08-26T20:29:39.150Z,14.20
2022-08-26T20:32:12.203Z,13.20
2022-08-26T20:34:44.203Z,12.20
2022-08-26T20:37:23.823Z,17.40
2022-08-26T20:39:55.917Z,13.00
2022-08-26T20:42:28.806Z,14.20
2022-08-26T20:44:57.704Z,15.60
2022-08-26T20:47:27.012Z,15.90
2022-08-26T20:49:59.953Z,12.40
2022-08-26T20:52:28.564Z,18.60
2022-08-26T20:54:59.972Z,13.50
2022-08-26T20:57:46.692Z,17.50
2022-08-26T21:00:18.486Z,13.20
2022-08-26T21:02:49.478Z,13.50
2022-08-26T21:05:19.022Z,14.00
2022-08-26T21:07:51.553Z,13.30
2022-08-26T21:10:21.990Z,18.20
2022-08-26T21:15:20.338Z,16.60
2022-08-26T21:17:48.795Z,17.50
2022-08-26T21:20:19.894Z,13.50
2022-08-26T21:22:47.759Z,22.60
2022-08-26T21:25:18.676Z,13.80
2022-08-26T21:27:46.976Z,13.50
2022-08-26T21:30:17.149Z,23.90
2022-08-26T21:32:47.223Z,15.60
2022-08-26T21:35:15.741Z,14.40
2022-08-26T21:37:44.792Z,15.40
2022-08-26T21:40:13.618Z,16.10
2022-08-26T21:42:41.562Z,15.90
2022-08-26T21:45:10.281Z,11.80
2022-08-26T21:47:40.913Z,15.00
2022-08-26T21:50:10.713Z,16.30
2022-08-26T21:52:39.474Z,19.20
2022-08-26T21:55:11.756Z,10.60
2022-08-26T22:00:13.791Z,15.10
2022-08-26T22:02:45.611Z,18.60
2022-08-26T22:05:14.704Z,14.10
2022-08-26T22:07:42.734Z,14.20
2022-08-26T22:10:11.653Z,15.90
2022-08-26T22:12:39.982Z,14.80
2022-08-26T22:15:08.964Z,19.30
2022-08-26T22:17:37.880Z,16.40
2022-08-26T22:20:16.493Z,16.50
2022-08-26T22:22:45.261Z,15.00
2022-08-26T22:25:13.557Z,15.30
2022-08-26T22:27:47.657Z,14.20
2022-08-26T22:30:18.473Z,17.50
2022-08-26T22:32:47.962Z,17.70
2022-08-26T22:35:29.025Z,14.00
2022-08-26T22:37:58.986Z,11.40
2022-08-26T22:40:29.996Z,18.00
2022-08-26T22:43:03.209Z,17.10
2022-08-26T22:45:32.778Z,12.60
2022-08-26T22:48:06.340Z,16.60
2022-08-26T22:50:34.665Z,20.60
2022-08-26T22:53:05.221Z,19.70
2022-08-26T22:55:35.580Z,21.20
2022-08-26T22:58:10.020Z,17.50
2022-08-26T23:00:39.035Z,16.90
2022-08-26T23:03:10.941Z,23.20
2022-08-26T23:05:44.297Z,22.00
2022-08-26T23:08:15.158Z,16.70
2022-08-26T23:10:47.852Z,15.90
2022-08-26T23:13:19.625Z,14.90
2022-08-26T23:15:50.137Z,14.60
2022-08-26T23:18:18.188Z,15.20
2022-08-26T23:20:51.055Z,21.00
2022-08-26T23:23:24.032Z,13.50
2022-08-26T23:25:56.615Z,17.60
2022-08-26T23:28:29.076Z,16.60
2022-08-26T23:30:57.288Z,11.40
2022-08-26T23:33:45.669Z,12.60
2022-08-26T23:36:17.825Z,13.40
2022-08-26T23:38:52.483Z,15.30
2022-08-26T23:41:24.581Z,15.10
2022-08-26T23:43:52.413Z,17.40
2022-08-26T23:46:20.698Z,12.60
2022-08-26T23:48:49.155Z,14.40
2022-08-26T23:51:35.682Z,12.10
2022-08-26T23:54:03.535Z,16.70
2022-08-26T23:56:31.647Z,18.90
2022-08-26T23:58:59.880Z,16.20
